createdAt,value
2017-08-17T00:01:48.049Z,17.38
2017-08-17T00:04:15.493Z,17.31
2017-08-17T00:06:42.965Z,17.41
2017-08-17T00:09:10.414Z,17.36
2017-08-17T00:11:37.889Z,17.38
2017-08-17T00:14:05.333Z,17.42
2017-08-17T00:16:32.782Z,17.21
2017-08-17T00:19:00.274Z,17.22
2017-08-17T00:21:27.730Z,17.25
2017-08-17T00:23:55.214Z,17.15
2017-08-17T00:26:22.665Z,17.06
2017-08-17T00:28:50.113Z,17.09
2017-08-17T00:31:17.576Z,16.99
2017-08-17T00:33:45.041Z,17.10
2017-08-17T00:36:12.507Z,17.27
2017-08-17T00:38:39.982Z,17.15
2017-08-17T00:41:07.462Z,17.17
2017-08-17T00:43:34.909Z,17.01
2017-08-17T00:46:02.354Z,16.92
2017-08-17T00:48:29.828Z,16.88
2017-08-17T00:50:57.277Z,17.02
2017-08-17T00:53:24.833Z,16.92
2017-08-17T00:55:52.315Z,16.86
2017-08-17T00:58:19.765Z,16.86
2017-08-17T01:00:47.702Z,16.85
2017-08-17T01:03:15.169Z,16.91
2017-08-17T01:05:42.622Z,16.82
2017-08-17T01:08:10.089Z,16.81
2017-08-17T01:10:37.537Z,16.70
2017-08-17T01:13:05.009Z,16.95
2017-08-17T01:15:32.495Z,16.99
2017-08-17T01:17:59.945Z,17.02
2017-08-17T01:20:27.422Z,17.01
2017-08-17T01:22:54.869Z,16.90
2017-08-17T01:25:22.336Z,16.79
2017-08-17T01:27:49.865Z,16.71
2017-08-17T01:30:17.323Z,16.70
2017-08-17T01:32:44.813Z,16.62
2017-08-17T01:35:12.260Z,16.59
2017-08-17T01:37:39.704Z,16.63
2017-08-17T01:40:07.168Z,16.64
2017-08-17T01:42:34.623Z,16.64
2017-08-17T01:45:02.098Z,16.61
2017-08-17T01:47:29.547Z,16.53
2017-08-17T01:49:57.002Z,16.58
2017-08-17T01:52:24.469Z,16.59
2017-08-17T01:54:52.245Z,16.62
2017-08-17T01:57:19.721Z,16.45
2017-08-17T01:59:47.177Z,16.52
2017-08-17T02:02:14.664Z,16.56
2017-08-17T02:04:42.121Z,16.56
2017-08-17T02:07:09.593Z,16.51
2017-08-17T02:09:37.082Z,16.47
2017-08-17T02:12:04.538Z,16.53
2017-08-17T02:14:32.016Z,16.57
2017-08-17T02:16:59.467Z,16.44
2017-08-17T02:19:26.938Z,16.37
2017-08-17T02:21:54.392Z,16.42
2017-08-17T02:24:21.846Z,16.44
2017-08-17T02:26:49.316Z,16.49
2017-08-17T02:29:16.780Z,16.31
2017-08-17T02:31:44.234Z,16.35
2017-08-17T02:34:11.718Z,16.43
2017-08-17T02:36:39.169Z,16.51
2017-08-17T02:39:06.651Z,16.58
2017-08-17T02:41:34.096Z,16.48
2017-08-17T02:44:01.556Z,16.42
2017-08-17T02:46:29.025Z,16.51
2017-08-17T02:48:56.472Z,16.48
2017-08-17T02:51:23.945Z,16.55
2017-08-17T02:53:51.406Z,16.44
2017-08-17T02:56:18.879Z,16.38
2017-08-17T02:58:46.329Z,16.51
2017-08-17T03:01:13.778Z,16.41
2017-08-17T03:03:41.245Z,16.44
2017-08-17T03:06:08.702Z,16.44
2017-08-17T03:08:36.176Z,16.31
2017-08-17T03:11:03.624Z,16.29
2017-08-17T03:13:31.065Z,16.29
2017-08-17T03:15:58.541Z,16.40
2017-08-17T03:18:25.985Z,16.44
2017-08-17T03:20:53.433Z,16.25
2017-08-17T03:23:20.902Z,16.58
2017-08-17T03:25:48.347Z,17.04
2017-08-17T03:28:15.816Z,17.85
2017-08-17T03:30:43.261Z,17.92
2017-08-17T03:33:10.745Z,17.02
2017-08-17T03:35:38.195Z,17.45
2017-08-17T03:38:05.650Z,17.89
2017-08-17T03:40:33.117Z,18.03
2017-08-17T03:43:00.566Z,17.61
2017-08-17T03:45:28.037Z,18.10
2017-08-17T03:47:55.489Z,17.71
2017-08-17T03:50:22.936Z,18.05
2017-08-17T03:52:50.419Z,18.42
2017-08-17T03:55:17.870Z,17.76
2017-08-17T03:57:45.333Z,17.06
2017-08-17T04:00:12.773Z,16.65
2017-08-17T04:02:40.244Z,16.50
2017-08-17T04:05:07.709Z,16.56
2017-08-17T04:07:35.166Z,16.62
2017-08-17T04:10:02.625Z,16.46
2017-08-17T04:12:30.079Z,16.49
2017-08-17T04:14:57.548Z,16.42
2017-08-17T04:17:25.012Z,16.43
2017-08-17T04:19:52.465Z,16.56
2017-08-17T04:22:19.932Z,16.77
2017-08-17T04:24:47.381Z,16.83
2017-08-17T04:27:14.848Z,16.72
2017-08-17T04:29:42.293Z,16.84
2017-08-17T04:32:09.757Z,17.02
2017-08-17T04:34:37.241Z,16.75
2017-08-17T04:37:04.693Z,16.43
2017-08-17T04:39:32.147Z,16.50
2017-08-17T04:41:59.623Z,17.01
2017-08-17T04:44:27.069Z,16.60
2017-08-17T04:46:54.523Z,16.70
2017-08-17T04:49:21.989Z,16.57
2017-08-17T04:51:49.454Z,16.61
2017-08-17T04:54:16.905Z,16.74
2017-08-17T04:57:01.824Z,16.74
2017-08-17T04:59:29.265Z,17.23
2017-08-17T05:01:56.706Z,16.67
2017-08-17T05:04:24.172Z,16.79
2017-08-17T05:06:51.622Z,16.87
2017-08-17T05:09:19.093Z,17.01
2017-08-17T05:11:46.544Z,17.13
2017-08-17T05:14:13.990Z,17.30
2017-08-17T05:16:41.457Z,17.56
2017-08-17T05:19:08.903Z,17.63
2017-08-17T05:21:36.376Z,17.75
2017-08-17T05:24:03.820Z,17.48
2017-08-17T05:26:31.290Z,17.81
2017-08-17T05:28:58.744Z,17.95
2017-08-17T05:31:26.194Z,17.85
2017-08-17T05:33:53.662Z,17.85
2017-08-17T05:36:21.130Z,17.84
2017-08-17T05:38:48.594Z,17.93
2017-08-17T05:41:16.050Z,17.96
2017-08-17T05:43:43.532Z,18.08
2017-08-17T05:46:11.009Z,18.33
2017-08-17T05:48:38.494Z,18.26
2017-08-17T05:51:05.944Z,18.42
2017-08-17T05:53:33.393Z,18.47
2017-08-17T05:56:00.864Z,18.64
2017-08-17T05:58:28.316Z,18.63
2017-08-17T06:00:55.795Z,18.72
2017-08-17T06:03:23.253Z,18.94
2017-08-17T06:05:50.733Z,19.15
2017-08-17T06:08:18.187Z,18.98
2017-08-17T06:10:45.649Z,19.34
2017-08-17T06:13:13.136Z,19.28
2017-08-17T06:15:40.614Z,19.37
2017-08-17T06:18:08.071Z,19.47
2017-08-17T06:20:35.529Z,19.62
2017-08-17T06:23:03.002Z,19.90
2017-08-17T06:25:30.451Z,19.89
2017-08-17T06:27:57.905Z,19.89
2017-08-17T06:30:25.385Z,19.92
2017-08-17T06:32:52.825Z,19.80
2017-08-17T06:35:20.481Z,19.88
2017-08-17T06:37:47.935Z,19.94
2017-08-17T06:40:15.433Z,20.02
2017-08-17T06:42:42.878Z,20.10
2017-08-17T06:45:10.322Z,20.27
2017-08-17T06:47:37.788Z,20.25
2017-08-17T06:50:05.258Z,20.38
2017-08-17T06:52:32.706Z,20.31
2017-08-17T06:55:00.165Z,20.44
2017-08-17T06:57:27.626Z,20.58
2017-08-17T06:59:55.081Z,20.48
2017-08-17T07:02:22.546Z,20.52
2017-08-17T07:04:50.013Z,20.61
2017-08-17T07:07:17.489Z,20.68
2017-08-17T07:09:44.944Z,20.64
2017-08-17T07:12:12.414Z,20.77
2017-08-17T07:14:39.888Z,20.91
2017-08-17T07:17:07.357Z,21.07
2017-08-17T07:19:34.817Z,21.13
2017-08-17T07:22:02.260Z,21.33
2017-08-17T07:24:29.720Z,21.32
2017-08-17T07:26:57.342Z,21.46
2017-08-17T07:29:24.777Z,21.26
2017-08-17T07:31:52.222Z,21.39
2017-08-17T07:34:19.704Z,21.70
2017-08-17T07:36:47.158Z,21.54
2017-08-17T07:39:14.609Z,21.68
2017-08-17T07:41:42.077Z,21.86
2017-08-17T07:44:09.548Z,21.96
2017-08-17T07:46:37.011Z,22.11
2017-08-17T07:49:04.448Z,22.21
2017-08-17T07:51:31.922Z,22.16
2017-08-17T07:53:59.362Z,22.27
2017-08-17T07:56:26.824Z,22.15
2017-08-17T07:58:54.276Z,22.42
2017-08-17T08:01:21.763Z,22.49
2017-08-17T08:03:49.229Z,22.64
2017-08-17T08:06:16.686Z,22.75
2017-08-17T08:08:44.149Z,22.70
2017-08-17T08:11:11.617Z,22.79
2017-08-17T08:13:39.054Z,22.83
2017-08-17T08:16:06.498Z,22.83
2017-08-17T08:18:33.966Z,22.83
2017-08-17T08:21:01.433Z,22.73
2017-08-17T08:23:28.896Z,22.95
2017-08-17T08:25:56.340Z,22.92
2017-08-17T08:28:23.811Z,23.05
2017-08-17T08:30:51.286Z,23.21
2017-08-17T08:33:18.725Z,23.39
2017-08-17T08:35:46.202Z,23.62
2017-08-17T08:38:13.654Z,23.49
2017-08-17T08:40:41.100Z,23.36
2017-08-17T08:43:08.589Z,23.27
2017-08-17T08:45:36.042Z,23.23
2017-08-17T08:48:03.520Z,23.48
2017-08-17T08:50:30.977Z,23.51
2017-08-17T08:52:58.449Z,23.50
2017-08-17T08:55:25.895Z,23.61
2017-08-17T08:57:53.365Z,23.82
2017-08-17T09:00:20.835Z,23.90
2017-08-17T09:02:48.281Z,23.83
2017-08-17T09:05:15.766Z,24.15
2017-08-17T09:07:43.209Z,24.21
2017-08-17T09:10:10.664Z,24.32
2017-08-17T09:12:38.154Z,24.36
2017-08-17T09:15:05.603Z,24.36
2017-08-17T09:17:33.048Z,24.46
2017-08-17T09:20:00.517Z,24.69
2017-08-17T09:22:27.965Z,24.50
2017-08-17T09:24:55.418Z,24.55
2017-08-17T09:27:22.881Z,24.83
2017-08-17T09:29:50.346Z,24.74
2017-08-17T09:32:17.796Z,24.76
2017-08-17T09:34:45.265Z,25.22
2017-08-17T09:37:12.719Z,25.64
2017-08-17T09:39:40.184Z,25.35
2017-08-17T09:42:07.634Z,25.39
2017-08-17T09:44:35.109Z,25.19
2017-08-17T09:47:02.589Z,25.14
2017-08-17T09:49:30.041Z,25.74
2017-08-17T09:51:57.493Z,26.11
2017-08-17T09:54:24.976Z,25.78
2017-08-17T09:56:52.435Z,25.92
2017-08-17T09:59:19.896Z,26.28
2017-08-17T10:01:47.359Z,26.02
2017-08-17T10:04:14.837Z,25.99
2017-08-17T10:06:42.298Z,26.15
2017-08-17T10:09:09.753Z,26.61
2017-08-17T10:11:37.217Z,26.68
2017-08-17T10:14:04.658Z,26.77
2017-08-17T10:16:32.125Z,26.61
2017-08-17T10:18:59.593Z,26.48
2017-08-17T10:21:27.042Z,26.49
2017-08-17T10:23:54.517Z,26.99
2017-08-17T10:26:21.977Z,27.29
2017-08-17T10:28:49.449Z,27.19
2017-08-17T10:31:16.921Z,26.51
2017-08-17T10:33:44.363Z,27.13
2017-08-17T10:36:11.815Z,27.07
2017-08-17T10:38:39.293Z,27.25
2017-08-17T10:41:06.754Z,27.26
2017-08-17T10:43:34.239Z,27.15
2017-08-17T10:46:01.709Z,27.53
2017-08-17T10:48:29.182Z,28.25
2017-08-17T10:50:56.624Z,28.28
2017-08-17T10:53:24.088Z,28.37
2017-08-17T10:55:51.550Z,28.79
2017-08-17T10:58:19.014Z,29.08
2017-08-17T11:00:46.485Z,28.32
2017-08-17T11:03:13.937Z,28.62
2017-08-17T11:05:41.413Z,28.12
2017-08-17T11:08:08.877Z,28.40
2017-08-17T11:10:36.323Z,28.40
2017-08-17T11:13:03.798Z,28.26
2017-08-17T11:15:31.248Z,27.92
2017-08-17T11:17:58.696Z,29.49
2017-08-17T11:20:26.175Z,29.37
2017-08-17T11:22:53.615Z,28.74
2017-08-17T11:25:21.089Z,29.12
2017-08-17T11:27:48.557Z,29.01
2017-08-17T11:30:16.026Z,29.22
2017-08-17T11:32:43.498Z,29.57
2017-08-17T11:35:10.956Z,29.75
2017-08-17T11:37:38.408Z,29.68
2017-08-17T11:40:05.870Z,29.65
2017-08-17T11:42:33.310Z,30.07
2017-08-17T11:45:00.785Z,32.07
2017-08-17T11:47:28.225Z,31.95
2017-08-17T11:49:55.686Z,31.73
2017-08-17T11:52:23.158Z,30.93
2017-08-17T11:54:50.615Z,31.23
2017-08-17T11:57:18.057Z,31.22
2017-08-17T11:59:45.525Z,31.54
2017-08-17T12:02:12.972Z,31.94
2017-08-17T12:04:40.419Z,33.28
2017-08-17T12:07:07.885Z,31.91
2017-08-17T12:09:35.331Z,33.32
2017-08-17T12:12:02.831Z,32.20
2017-08-17T12:14:30.273Z,33.35
2017-08-17T12:16:57.716Z,35.14
2017-08-17T12:19:25.188Z,35.42
2017-08-17T12:21:52.684Z,34.43
2017-08-17T12:24:20.134Z,35.76
2017-08-17T12:26:47.605Z,35.78
2017-08-17T12:29:15.041Z,36.24
2017-08-17T12:31:42.486Z,32.43
2017-08-17T12:34:09.950Z,35.13
2017-08-17T12:36:37.397Z,36.82
2017-08-17T12:39:04.877Z,36.31
2017-08-17T12:41:32.345Z,35.98
2017-08-17T12:43:59.801Z,36.33
2017-08-17T12:46:27.269Z,36.05
2017-08-17T12:48:54.713Z,34.98
2017-08-17T12:51:22.163Z,33.97
2017-08-17T12:53:49.632Z,34.14
2017-08-17T12:56:17.102Z,36.85
2017-08-17T12:58:44.540Z,37.08
2017-08-17T13:01:11.998Z,34.63
2017-08-17T13:03:39.466Z,33.82
2017-08-17T13:06:06.921Z,33.57
2017-08-17T13:08:34.388Z,34.64
2017-08-17T13:11:02.157Z,36.80
2017-08-17T13:13:29.633Z,34.74
2017-08-17T13:15:57.077Z,32.59
2017-08-17T13:18:24.551Z,32.25
2017-08-17T13:20:52.000Z,32.18
2017-08-17T13:23:19.467Z,32.78
2017-08-17T13:25:46.914Z,33.37
2017-08-17T13:28:14.387Z,33.56
2017-08-17T13:30:41.851Z,34.50
2017-08-17T13:33:09.302Z,34.26
2017-08-17T13:35:36.773Z,34.25
2017-08-17T13:38:04.213Z,34.39
2017-08-17T13:40:31.666Z,32.89
2017-08-17T13:42:59.156Z,34.14
2017-08-17T13:45:26.593Z,34.82
2017-08-17T13:47:54.047Z,33.92
2017-08-17T13:50:21.514Z,33.78
2017-08-17T13:52:48.967Z,33.84
2017-08-17T13:55:16.433Z,35.26
2017-08-17T13:57:43.881Z,35.47
2017-08-17T14:00:11.326Z,36.04
2017-08-17T14:02:38.818Z,35.58
2017-08-17T14:05:06.262Z,34.87
2017-08-17T14:07:33.725Z,36.22
2017-08-17T14:10:01.195Z,36.08
2017-08-17T14:12:28.670Z,33.92
2017-08-17T14:14:56.113Z,33.84
2017-08-17T14:17:23.588Z,32.49
2017-08-17T14:19:51.053Z,32.88
2017-08-17T14:22:18.497Z,33.23
2017-08-17T14:24:45.971Z,34.24
2017-08-17T14:27:13.414Z,33.29
2017-08-17T14:29:40.869Z,33.15
2017-08-17T14:32:08.332Z,32.91
2017-08-17T14:34:35.781Z,34.01
2017-08-17T14:37:03.259Z,33.11
2017-08-17T14:39:30.706Z,34.20
2017-08-17T14:41:58.186Z,34.02
2017-08-17T14:44:25.629Z,35.29
2017-08-17T14:46:53.081Z,33.57
2017-08-17T14:49:20.545Z,34.90
2017-08-17T14:51:48.022Z,35.68
2017-08-17T14:54:15.473Z,36.34
2017-08-17T14:56:42.937Z,35.72
2017-08-17T14:59:10.382Z,36.27
2017-08-17T15:01:37.857Z,34.39
2017-08-17T15:04:05.305Z,35.57
2017-08-17T15:06:32.749Z,36.02
2017-08-17T15:09:00.221Z,35.99
2017-08-17T15:11:27.692Z,36.08
2017-08-17T15:13:55.144Z,35.40
2017-08-17T15:16:22.629Z,36.30
2017-08-17T15:18:50.097Z,35.01
2017-08-17T15:21:17.545Z,35.47
2017-08-17T15:23:44.987Z,37.03
2017-08-17T15:26:12.445Z,35.08
2017-08-17T15:28:39.898Z,35.59
2017-08-17T15:31:07.377Z,37.23
2017-08-17T15:33:34.823Z,37.26
2017-08-17T15:36:02.265Z,36.88
2017-08-17T15:38:29.736Z,35.25
2017-08-17T15:40:57.210Z,34.29
2017-08-17T15:43:24.672Z,36.28
2017-08-17T15:45:52.141Z,37.07
2017-08-17T15:48:19.625Z,37.95
2017-08-17T15:50:47.069Z,37.55
2017-08-17T15:53:14.513Z,37.31
2017-08-17T15:55:41.987Z,34.93
2017-08-17T15:58:09.436Z,34.52
2017-08-17T16:00:36.914Z,34.67
2017-08-17T16:03:04.838Z,36.13
2017-08-17T16:05:32.329Z,35.87
2017-08-17T16:07:59.837Z,35.34
2017-08-17T16:10:27.289Z,35.16
2017-08-17T16:12:56.044Z,35.20
2017-08-17T16:15:23.490Z,35.85
2017-08-17T16:17:50.947Z,37.18
2017-08-17T16:20:18.466Z,37.06
2017-08-17T16:22:45.916Z,36.61
2017-08-17T16:25:13.361Z,36.91
2017-08-17T16:27:40.845Z,37.50
2017-08-17T16:30:08.299Z,36.53
2017-08-17T16:32:36.607Z,36.95
2017-08-17T16:35:04.570Z,35.63
2017-08-17T16:37:32.041Z,34.89
2017-08-17T16:39:59.499Z,34.50
2017-08-17T16:42:26.976Z,34.40
2017-08-17T16:44:55.018Z,33.84
2017-08-17T16:47:22.469Z,33.34
2017-08-17T16:49:49.989Z,33.20
2017-08-17T16:52:17.446Z,33.07
2017-08-17T16:54:45.673Z,33.21
2017-08-17T16:57:13.556Z,32.14
2017-08-17T16:59:41.024Z,32.64
2017-08-17T17:02:08.486Z,32.29
2017-08-17T17:04:35.955Z,31.47
2017-08-17T17:07:03.400Z,31.23
2017-08-17T17:09:30.874Z,31.37
2017-08-17T17:11:58.930Z,31.66
2017-08-17T17:14:26.383Z,31.68
2017-08-17T17:16:55.101Z,31.58
2017-08-17T17:19:22.687Z,31.05
2017-08-17T17:22:18.231Z,31.19
2017-08-17T17:24:45.693Z,31.11
2017-08-17T17:27:13.165Z,30.36
2017-08-17T17:29:40.637Z,30.47
2017-08-17T17:32:08.253Z,31.32
2017-08-17T17:34:35.698Z,31.66
2017-08-17T17:37:03.947Z,31.30
2017-08-17T17:39:31.425Z,30.96
2017-08-17T17:41:58.883Z,31.14
2017-08-17T17:44:26.363Z,31.25
2017-08-17T17:46:53.829Z,30.99
2017-08-17T17:49:21.925Z,30.42
2017-08-17T17:51:49.392Z,29.84
2017-08-17T17:54:16.863Z,29.47
2017-08-17T17:56:44.327Z,29.13
2017-08-17T17:59:11.817Z,28.81
2017-08-17T18:01:39.288Z,28.66
2017-08-17T18:04:06.736Z,28.22
2017-08-17T18:06:34.221Z,27.98
2017-08-17T18:09:01.681Z,27.85
2017-08-17T18:11:29.139Z,27.42
2017-08-17T18:13:56.610Z,27.21
2017-08-17T18:16:24.053Z,26.97
2017-08-17T18:18:51.529Z,27.07
2017-08-17T18:21:18.981Z,26.62
2017-08-17T18:23:46.424Z,26.17
2017-08-17T18:26:13.904Z,26.19
2017-08-17T18:28:41.344Z,26.11
2017-08-17T18:31:08.817Z,26.00
2017-08-17T18:33:36.263Z,25.88
2017-08-17T18:36:03.720Z,25.95
2017-08-17T18:38:31.193Z,25.98
2017-08-17T18:40:58.669Z,25.87
2017-08-17T18:43:26.114Z,25.75
2017-08-17T18:45:53.597Z,25.76
2017-08-17T18:48:21.073Z,25.87
2017-08-17T18:50:48.540Z,25.43
2017-08-17T18:53:16.029Z,25.10
2017-08-17T18:55:43.480Z,24.97
2017-08-17T18:58:10.946Z,24.80
2017-08-17T19:00:38.421Z,24.76
2017-08-17T19:03:05.901Z,24.79
2017-08-17T19:05:33.373Z,24.81
2017-08-17T19:08:00.820Z,24.72
2017-08-17T19:10:28.289Z,24.57
2017-08-17T19:12:55.742Z,24.41
2017-08-17T19:15:23.202Z,24.40
2017-08-17T19:17:50.653Z,24.41
2017-08-17T19:20:18.127Z,24.33
2017-08-17T19:22:45.986Z,24.39
2017-08-17T19:25:13.457Z,24.30
2017-08-17T19:27:41.476Z,24.17
2017-08-17T19:30:08.971Z,24.14
2017-08-17T19:32:36.466Z,24.13
2017-08-17T19:35:04.412Z,24.07
2017-08-17T19:37:31.853Z,24.00
2017-08-17T19:39:59.328Z,23.93
2017-08-17T19:42:26.775Z,23.83
2017-08-17T19:44:55.024Z,23.65
2017-08-17T19:47:22.500Z,23.62
2017-08-17T19:49:49.944Z,23.44
2017-08-17T19:52:17.500Z,23.39
2017-08-17T19:54:45.030Z,23.42
2017-08-17T19:57:12.826Z,23.35
2017-08-17T19:59:40.501Z,23.40
2017-08-17T20:02:08.284Z,23.23
2017-08-17T20:04:35.767Z,23.17
2017-08-17T20:07:03.216Z,23.15
2017-08-17T20:09:30.683Z,23.25
2017-08-17T20:11:58.182Z,23.24
2017-08-17T20:14:26.084Z,23.17
2017-08-17T20:16:53.528Z,23.07
2017-08-17T20:19:20.998Z,22.87
2017-08-17T20:21:48.645Z,22.88
2017-08-17T20:24:16.107Z,22.89
2017-08-17T20:26:43.550Z,22.93
2017-08-17T20:29:11.002Z,22.87
2017-08-17T20:31:38.640Z,22.75
2017-08-17T20:34:06.110Z,22.75
2017-08-17T20:36:33.613Z,22.53
2017-08-17T20:39:01.394Z,22.35
2017-08-17T20:41:28.916Z,22.34
2017-08-17T20:43:56.364Z,22.34
2017-08-17T20:46:23.849Z,22.50
2017-08-17T20:48:51.401Z,22.40
2017-08-17T20:51:18.933Z,22.26
2017-08-17T20:53:46.401Z,22.19
2017-08-17T20:56:13.881Z,22.26
2017-08-17T20:58:41.325Z,22.26
2017-08-17T21:01:08.777Z,22.43
2017-08-17T21:03:36.260Z,22.30
2017-08-17T21:06:03.713Z,22.14
2017-08-17T21:08:31.186Z,22.18
2017-08-17T21:10:58.625Z,22.12
2017-08-17T21:13:26.080Z,22.10
2017-08-17T21:15:53.548Z,21.93
2017-08-17T21:18:21.022Z,21.95
2017-08-17T21:20:48.469Z,21.96
2017-08-17T21:23:15.915Z,22.05
2017-08-17T21:25:43.389Z,22.00
2017-08-17T21:28:10.836Z,21.89
2017-08-17T21:30:38.287Z,21.74
2017-08-17T21:33:06.012Z,21.64
2017-08-17T21:35:33.480Z,21.64
2017-08-17T21:38:00.928Z,21.68
2017-08-17T21:40:28.398Z,21.69
2017-08-17T21:42:55.857Z,21.68
2017-08-17T21:45:23.306Z,21.63
2017-08-17T21:47:50.778Z,21.40
2017-08-17T21:50:18.230Z,21.31
2017-08-17T21:52:45.676Z,21.15
2017-08-17T21:55:13.153Z,21.20
2017-08-17T21:57:40.589Z,21.25
2017-08-17T22:02:34.823Z,21.22
2017-08-17T22:05:02.284Z,21.15
2017-08-17T22:07:29.732Z,21.23
2017-08-17T22:09:57.208Z,21.06
2017-08-17T22:12:24.661Z,20.81
2017-08-17T22:14:52.120Z,20.86
2017-08-17T22:17:19.597Z,20.99
2017-08-17T22:19:47.045Z,20.85
2017-08-17T22:22:14.507Z,20.82
2017-08-17T22:24:41.982Z,20.73
2017-08-17T22:27:09.439Z,20.65
2017-08-17T22:29:36.920Z,20.65
2017-08-17T22:32:04.361Z,20.76
2017-08-17T22:34:31.813Z,20.62
2017-08-17T22:36:59.277Z,20.56
2017-08-17T22:39:26.723Z,20.71
2017-08-17T22:41:54.193Z,20.78
2017-08-17T22:44:21.639Z,20.65
2017-08-17T22:46:49.116Z,20.57
2017-08-17T22:49:16.588Z,20.44
2017-08-17T22:51:44.060Z,20.33
2017-08-17T22:54:11.500Z,20.17
2017-08-17T22:56:38.964Z,20.12
2017-08-17T22:59:06.401Z,20.08
2017-08-17T23:01:33.878Z,20.04
2017-08-17T23:04:01.326Z,20.04
2017-08-17T23:06:28.793Z,20.07
2017-08-17T23:08:56.266Z,19.86
2017-08-17T23:11:23.735Z,19.98
2017-08-17T23:13:51.176Z,19.82
2017-08-17T23:16:18.644Z,19.84
2017-08-17T23:18:46.090Z,19.99
2017-08-17T23:21:13.541Z,19.99
2017-08-17T23:23:41.024Z,19.90
2017-08-17T23:26:08.460Z,19.94
2017-08-17T23:28:35.916Z,19.84
2017-08-17T23:31:03.388Z,19.79
2017-08-17T23:33:30.830Z,19.91
2017-08-17T23:35:58.277Z,19.89
2017-08-17T23:38:25.748Z,19.82
2017-08-17T23:40:53.208Z,19.80
2017-08-17T23:43:20.668Z,19.76
2017-08-17T23:45:48.136Z,19.67
2017-08-17T23:48:15.592Z,19.59
2017-08-17T23:50:43.068Z,19.68
2017-08-17T23:53:10.514Z,19.71
2017-08-17T23:55:38.134Z,19.68
2017-08-17T23:58:05.605Z,19.62
